Time;durP1;ratioP1;P1;durP2;ratioP2;P2;SDS_P1;SDS_P2;PMS_P1;PMS_P2;Temp;Humidity;BMP_temperature;BMP_pressure;BME280_temperature;BME280_humidity;BME280_pressure;Samples;Min_cycle;Max_cycle;Signal;HPM_P1;HPM_P2
2022/12/31 00:00:40;;;;;;;7.97;2.83;;;11.70;99.90;;;;;;5073319;28;20135;-68
2022/12/31 00:03:08;;;;;;;8.70;2.78;;;11.70;99.90;;;;;;5073573;28;20052;-67
2022/12/31 00:05:35;;;;;;;5.57;2.80;;;11.70;99.90;;;;;;5072451;28;20057;-70
2022/12/31 00:08:01;;;;;;;6.88;2.75;;;11.70;99.90;;;;;;5073145;28;20044;-69
2022/12/31 00:10:28;;;;;;;5.97;2.70;;;11.70;99.90;;;;;;5071930;28;20090;-69
2022/12/31 00:12:54;;;;;;;5.13;2.83;;;11.70;99.90;;;;;;5071995;28;20091;-69
2022/12/31 00:15:19;;;;;;;6.70;2.58;;;11.70;99.90;;;;;;5064356;28;20390;-69
2022/12/31 00:17:45;;;;;;;5.63;3.88;;;11.70;99.90;;;;;;5061260;28;20051;-68
2022/12/31 00:20:10;;;;;;;5.85;3.08;;;11.60;99.90;;;;;;5061500;28;20393;-68
2022/12/31 00:22:36;;;;;;;7.13;2.83;;;11.60;99.90;;;;;;5071545;28;20051;-67
2022/12/31 00:25:02;;;;;;;5.30;2.80;;;11.70;99.90;;;;;;5069188;28;20040;-67
2022/12/31 00:27:30;;;;;;;7.90;2.92;;;11.70;99.90;;;;;;5062012;28;20040;-67
2022/12/31 00:29:58;;;;;;;4.00;2.70;;;11.60;99.90;;;;;;5071635;28;20083;-69
2022/12/31 00:32:24;;;;;;;4.20;2.80;;;11.60;99.90;;;;;;5071438;28;20047;-69
2022/12/31 00:34:49;;;;;;;3.97;2.78;;;11.60;99.90;;;;;;5070733;28;20477;-69
2022/12/31 00:37:15;;;;;;;8.07;2.90;;;11.60;99.90;;;;;;5073111;28;20547;-68
2022/12/31 00:39:40;;;;;;;5.47;2.90;;;11.70;99.90;;;;;;5072904;28;20041;-68
2022/12/31 00:42:06;;;;;;;7.57;3.58;;;11.60;99.90;;;;;;5071669;28;20047;-67
2022/12/31 00:44:32;;;;;;;4.05;2.60;;;11.60;99.90;;;;;;5057626;28;20091;-67
2022/12/31 00:46:57;;;;;;;4.88;2.83;;;11.60;99.90;;;;;;5051549;28;20048;-66
2022/12/31 00:49:23;;;;;;;6.95;2.90;;;11.60;99.90;;;;;;5052796;28;20043;-67
2022/12/31 00:51:48;;;;;;;3.63;2.78;;;11.60;99.90;;;;;;5052638;28;20041;-68
2022/12/31 00:54:14;;;;;;;5.35;3.25;;;11.60;99.90;;;;;;5051851;28;20045;-67
2022/12/31 00:56:40;;;;;;;4.57;2.97;;;11.60;99.90;;;;;;5052317;28;20576;-67
2022/12/31 00:59:05;;;;;;;4.85;3.15;;;11.60;99.90;;;;;;5052432;28;20036;-67
2022/12/31 01:01:36;;;;;;;8.98;3.33;;;11.60;99.90;;;;;;5052431;28;20434;-69
2022/12/31 01:04:11;;;;;;;5.30;3.20;;;11.60;99.90;;;;;;5051623;28;20044;-69
2022/12/31 01:06:38;;;;;;;3.65;3.03;;;11.60;99.90;;;;;;5052414;28;20051;-70
2022/12/31 01:09:05;;;;;;;7.40;3.25;;;11.60;99.90;;;;;;5051959;28;20033;-69
2022/12/31 01:11:31;;;;;;;4.72;2.97;;;11.60;99.90;;;;;;5052129;28;20090;-69
2022/12/31 01:14:01;;;;;;;4.28;3.10;;;11.60;99.90;;;;;;5050061;28;20041;-69
2022/12/31 01:16:48;;;;;;;4.93;3.50;;;11.60;99.90;;;;;;5052287;28;20390;-69
2022/12/31 01:19:16;;;;;;;5.28;3.70;;;11.60;99.90;;;;;;5050756;28;20068;-69
2022/12/31 01:21:43;;;;;;;5.68;3.30;;;11.60;99.90;;;;;;5051982;28;20037;-67
2022/12/31 01:24:10;;;;;;;7.97;3.83;;;11.60;99.90;;;;;;5051414;28;20076;-67
2022/12/31 01:26:36;;;;;;;8.90;3.95;;;11.60;99.90;;;;;;5051909;28;20080;-68
2022/12/31 01:29:03;;;;;;;5.85;3.15;;;11.60;99.90;;;;;;5050665;28;20052;-67
2022/12/31 01:31:29;;;;;;;4.85;3.45;;;11.60;99.90;;;;;;5051916;28;20052;-67
2022/12/31 01:33:56;;;;;;;5.95;3.47;;;11.60;99.90;;;;;;5050762;28;20067;-68
2022/12/31 01:36:27;;;;;;;4.93;3.20;;;11.60;99.90;;;;;;5051868;28;20044;-69
2022/12/31 01:38:55;;;;;;;11.02;4.13;;;11.60;99.90;;;;;;5051610;28;20541;-69
2022/12/31 01:41:23;;;;;;;5.95;3.35;;;11.60;99.90;;;;;;5051616;28;20060;-70
2022/12/31 01:43:58;;;;;;;5.47;3.05;;;11.60;99.90;;;;;;5051055;28;20055;-70
2022/12/31 01:46:44;;;;;;;7.15;3.20;;;11.60;99.90;;;;;;5051773;28;20170;-70
2022/12/31 01:49:43;;;;;;;5.00;2.88;;;11.60;99.90;;;;;;5051588;28;20045;-69
2022/12/31 01:52:21;;;;;;;7.35;2.97;;;11.60;99.90;;;;;;5051532;28;20053;-68
2022/12/31 01:55:09;;;;;;;5.45;3.00;;;11.50;99.90;;;;;;5050738;28;20041;-69
2022/12/31 01:57:36;;;;;;;3.72;2.60;;;11.50;99.90;;;;;;5047147;28;20076;-69
2022/12/31 02:00:04;;;;;;;5.65;2.60;;;11.60;99.90;;;;;;5051191;28;20444;-68
2022/12/31 02:02:29;;;;;;;3.50;2.30;;;11.50;99.90;;;;;;5050946;28;20033;-68
2022/12/31 02:04:58;;;;;;;2.80;2.25;;;11.50;99.90;;;;;;5050661;28;20047;-69
2022/12/31 02:07:24;;;;;;;3.25;2.13;;;11.50;99.90;;;;;;5051338;28;20084;-69
2022/12/31 02:09:50;;;;;;;4.95;2.15;;;11.50;99.90;;;;;;5051139;28;20072;-69
2022/12/31 02:12:16;;;;;;;2.08;1.60;;;11.50;99.90;;;;;;5049134;28;20040;-69
2022/12/31 02:14:46;;;;;;;3.13;2.00;;;11.50;99.90;;;;;;5056187;28;20516;-70
2022/12/31 02:17:38;;;;;;;2.03;1.80;;;11.50;99.90;;;;;;5064680;28;20071;-69
2022/12/31 02:20:29;;;;;;;3.60;1.70;;;11.50;99.90;;;;;;5052374;28;20037;-68
2022/12/31 02:23:28;;;;;;;3.17;1.38;;;11.50;99.90;;;;;;5050541;28;20044;-69
2022/12/31 02:26:09;;;;;;;2.03;1.10;;;11.40;99.90;;;;;;5050380;28;20231;-68
2022/12/31 02:29:19;;;;;;;0.90;0.90;;;11.40;99.90;;;;;;5050689;28;20584;-69
2022/12/31 02:31:57;;;;;;;2.08;1.25;;;11.50;99.90;;;;;;5058856;28;20040;-70
2022/12/31 02:34:26;;;;;;;1.55;0.98;;;11.50;99.90;;;;;;5066695;28;20048;-69
2022/12/31 02:36:55;;;;;;;1.85;1.17;;;11.40;99.90;;;;;;5069556;28;20079;-68
2022/12/31 02:39:21;;;;;;;2.63;1.20;;;11.40;99.90;;;;;;5070815;28;20041;-68
2022/12/31 02:41:51;;;;;;;2.42;0.90;;;11.40;99.90;;;;;;5069692;28;20043;-69
2022/12/31 02:44:28;;;;;;;1.10;1.00;;;11.40;99.90;;;;;;5069760;28;20051;-69
2022/12/31 02:47:11;;;;;;;1.13;0.98;;;11.40;99.90;;;;;;5071046;28;20067;-69
2022/12/31 02:49:58;;;;;;;1.67;0.90;;;11.30;99.90;;;;;;5070702;28;20209;-69
2022/12/31 02:52:47;;;;;;;2.05;1.02;;;11.30;99.90;;;;;;5069573;28;20037;-69
2022/12/31 02:55:24;;;;;;;3.40;1.17;;;11.30;99.90;;;;;;5058414;28;20257;-69
2022/12/31 03:02:12;;;;;;;2.35;1.10;;;11.30;99.90;;;;;;5070805;28;20583;-69
2022/12/31 03:04:30;;;;;;;1.88;1.00;;;11.30;99.90;;;;;;5069780;28;20052;-69
2022/12/31 03:06:37;;;;;;;2.20;1.30;;;11.30;99.90;;;;;;5070306;28;20048;-69
2022/12/31 03:09:21;;;;;;;2.10;1.45;;;11.30;99.90;;;;;;5070442;28;20066;-69
2022/12/31 03:14:30;;;;;;;1.45;1.35;;;11.20;99.90;;;;;;5069930;28;20413;-69
2022/12/31 03:16:56;;;;;;;1.95;1.50;;;11.20;99.90;;;;;;5069089;28;20037;-68
2022/12/31 03:27:34;;;;;;;3.38;1.60;;;11.20;99.90;;;;;;5070295;28;20044;-67
2022/12/31 03:30:00;;;;;;;3.53;1.80;;;11.20;99.90;;;;;;5070513;28;20386;-68
2022/12/31 03:32:25;;;;;;;2.00;1.75;;;11.20;99.90;;;;;;5073911;28;20199;-67
2022/12/31 03:34:51;;;;;;;4.72;1.60;;;11.10;99.90;;;;;;5073415;28;20152;-67
2022/12/31 03:37:16;;;;;;;4.07;1.70;;;11.10;99.90;;;;;;5073945;28;20037;-67
2022/12/31 03:39:42;;;;;;;2.83;1.80;;;11.10;99.90;;;;;;5074194;28;20032;-67
2022/12/31 03:42:07;;;;;;;3.17;1.70;;;11.10;99.90;;;;;;5073722;28;20041;-67
2022/12/31 03:44:33;;;;;;;3.28;1.80;;;11.10;99.90;;;;;;5073146;28;20060;-68
2022/12/31 03:46:58;;;;;;;2.65;2.03;;;11.10;99.90;;;;;;5073839;28;20044;-67
2022/12/31 03:49:24;;;;;;;2.08;1.88;;;11.10;99.90;;;;;;5072393;28;20036;-67
2022/12/31 03:51:49;;;;;;;3.55;2.15;;;11.10;99.90;;;;;;5073914;28;20068;-67
2022/12/31 03:54:15;;;;;;;5.00;2.15;;;11.10;99.90;;;;;;5073019;28;20751;-67
2022/12/31 03:56:40;;;;;;;2.40;1.90;;;11.10;99.90;;;;;;5073570;28;20037;-68
2022/12/31 03:59:06;;;;;;;2.45;1.92;;;11.10;99.90;;;;;;5073208;28;20042;-67
2022/12/31 04:01:31;;;;;;;4.03;2.13;;;11.10;99.90;;;;;;5073415;28;20119;-67
2022/12/31 04:03:57;;;;;;;2.28;1.70;;;11.10;99.90;;;;;;5072813;28;20036;-67
2022/12/31 04:06:22;;;;;;;2.45;1.70;;;11.10;99.90;;;;;;5073680;28;20075;-69
2022/12/31 04:08:48;;;;;;;2.22;1.60;;;11.20;99.90;;;;;;5073508;28;20543;-67
2022/12/31 04:11:13;;;;;;;3.35;2.00;;;11.10;99.90;;;;;;5073488;28;20048;-67
2022/12/31 04:13:39;;;;;;;4.55;1.90;;;11.10;99.90;;;;;;5073203;28;20043;-71
2022/12/31 04:16:04;;;;;;;4.35;2.10;;;11.10;99.90;;;;;;5072849;28;20098;-68
2022/12/31 04:18:30;;;;;;;2.75;2.10;;;11.10;99.90;;;;;;5073462;28;20074;-67
2022/12/31 04:21:04;;;;;;;2.08;1.85;;;11.10;99.90;;;;;;5071699;28;20095;-68
2022/12/31 04:23:30;;;;;;;2.85;2.05;;;11.20;99.90;;;;;;5073348;28;20036;-68
2022/12/31 04:25:55;;;;;;;4.40;1.80;;;11.10;99.90;;;;;;5072440;28;20413;-69
2022/12/31 04:28:21;;;;;;;2.60;1.70;;;11.10;99.90;;;;;;5072981;28;20050;-68
2022/12/31 04:30:46;;;;;;;2.38;1.83;;;11.20;99.90;;;;;;5072761;28;20051;-68
2022/12/31 04:33:12;;;;;;;4.78;2.28;;;11.20;99.90;;;;;;5073063;28;20044;-68
2022/12/31 04:35:37;;;;;;;2.40;1.60;;;11.10;99.90;;;;;;5072391;28;20409;-69
2022/12/31 04:38:03;;;;;;;2.72;1.70;;;11.20;99.90;;;;;;5073086;28;20028;-69
2022/12/31 04:40:29;;;;;;;2.70;1.75;;;11.10;99.90;;;;;;5054087;28;20087;-69
2022/12/31 04:42:55;;;;;;;3.33;1.58;;;11.10;99.90;;;;;;5051894;28;20067;-69
2022/12/31 04:45:20;;;;;;;4.28;1.55;;;11.10;99.90;;;;;;5052293;28;20136;-69
2022/12/31 04:47:46;;;;;;;3.17;1.38;;;11.10;99.90;;;;;;5052524;28;20124;-70
2022/12/31 04:50:11;;;;;;;2.65;1.40;;;11.10;99.90;;;;;;5052905;28;20045;-70
2022/12/31 04:52:37;;;;;;;4.55;1.67;;;11.10;99.90;;;;;;5052423;28;20593;-69
2022/12/31 04:55:03;;;;;;;1.58;1.48;;;11.20;99.90;;;;;;5052025;28;20397;-70
2022/12/31 04:57:28;;;;;;;4.50;1.40;;;11.10;99.90;;;;;;5052359;28;20444;-69
2022/12/31 04:59:54;;;;;;;2.50;1.45;;;11.10;99.90;;;;;;5052373;28;20044;-68
2022/12/31 05:02:19;;;;;;;3.58;1.65;;;11.10;99.90;;;;;;5052348;28;20041;-68
2022/12/31 05:04:45;;;;;;;6.30;1.50;;;11.10;99.90;;;;;;5051660;28;20099;-68
2022/12/31 05:07:10;;;;;;;3.15;1.50;;;11.00;99.90;;;;;;5050744;28;20226;-68
2022/12/31 05:09:36;;;;;;;2.00;1.30;;;11.10;99.90;;;;;;5052375;28;20056;-68
2022/12/31 05:12:02;;;;;;;1.50;1.40;;;11.10;99.90;;;;;;5052194;28;20504;-69
2022/12/31 05:14:27;;;;;;;1.63;1.52;;;11.00;99.90;;;;;;5051469;28;20044;-67
2022/12/31 05:16:53;;;;;;;1.30;1.20;;;11.10;99.90;;;;;;5052295;28;20044;-67
2022/12/31 05:19:19;;;;;;;4.82;1.67;;;11.00;99.90;;;;;;5050940;28;20536;-68
2022/12/31 05:22:27;;;;;;;3.55;2.03;;;11.00;99.90;;;;;;5051990;28;20041;-69
2022/12/31 05:24:30;;;;;;;6.80;2.08;;;11.00;99.90;;;;;;5051006;28;20045;-70
2022/12/31 05:26:55;;;;;;;4.28;2.10;;;11.00;99.90;;;;;;5051964;28;20045;-70
2022/12/31 05:29:21;;;;;;;3.55;2.13;;;11.00;99.90;;;;;;5050663;28;20060;-69
2022/12/31 05:31:46;;;;;;;4.93;2.55;;;11.00;99.90;;;;;;5051969;28;20044;-68
2022/12/31 05:34:12;;;;;;;4.20;3.17;;;11.00;99.90;;;;;;5051243;28;20040;-68
2022/12/31 05:36:37;;;;;;;4.07;3.00;;;11.00;99.90;;;;;;5051911;28;20032;-68
2022/12/31 05:39:03;;;;;;;5.00;3.50;;;11.00;99.90;;;;;;5051833;28;20037;-69
2022/12/31 05:41:28;;;;;;;6.00;3.60;;;11.00;99.90;;;;;;5051390;28;20041;-68
2022/12/31 05:43:54;;;;;;;3.75;3.45;;;11.00;99.90;;;;;;5051027;28;20069;-68
2022/12/31 05:46:19;;;;;;;5.75;3.83;;;11.00;99.90;;;;;;5051644;28;20085;-69
2022/12/31 05:48:45;;;;;;;7.20;4.03;;;11.00;99.90;;;;;;5051484;28;20102;-69
2022/12/31 05:51:11;;;;;;;5.57;4.20;;;11.00;99.90;;;;;;5050167;28;20053;-70
2022/12/31 05:53:36;;;;;;;5.40;4.47;;;11.00;99.90;;;;;;5049875;28;20045;-68
2022/12/31 05:56:02;;;;;;;4.85;3.47;;;11.00;99.90;;;;;;5050909;28;20040;-67
2022/12/31 05:58:27;;;;;;;3.88;3.47;;;11.00;99.90;;;;;;5051112;28;20076;-67
2022/12/31 06:00:53;;;;;;;4.13;3.50;;;11.10;99.90;;;;;;5051375;28;20037;-67
2022/12/31 06:03:19;;;;;;;5.72;3.50;;;11.10;99.90;;;;;;5051145;28;20159;-67
2022/12/31 06:05:44;;;;;;;3.85;2.95;;;11.00;99.90;;;;;;5050483;28;20120;-67
2022/12/31 06:08:11;;;;;;;3.47;2.78;;;11.10;99.90;;;;;;5050165;28;20041;-66
2022/12/31 06:10:36;;;;;;;3.10;2.65;;;11.10;99.90;;;;;;5044791;28;20052;-67
2022/12/31 06:13:02;;;;;;;2.97;2.60;;;11.00;99.90;;;;;;5059072;28;20041;-68
2022/12/31 06:15:28;;;;;;;3.67;2.30;;;11.00;99.90;;;;;;5058925;28;20120;-68
2022/12/31 06:17:53;;;;;;;5.03;2.53;;;11.00;99.90;;;;;;5071377;28;20037;-68
2022/12/31 06:20:19;;;;;;;2.67;2.35;;;11.00;99.90;;;;;;5065105;28;20041;-68
2022/12/31 06:22:45;;;;;;;3.58;2.60;;;11.00;99.90;;;;;;5062236;28;20972;-69
2022/12/31 06:25:10;;;;;;;2.83;2.33;;;11.00;99.90;;;;;;5069085;28;20504;-68
2022/12/31 06:27:36;;;;;;;2.63;2.42;;;11.00;99.90;;;;;;5071128;28;20089;-68
2022/12/31 06:30:01;;;;;;;2.78;2.40;;;11.00;99.90;;;;;;5065527;28;20509;-69
2022/12/31 06:32:27;;;;;;;3.05;2.33;;;11.00;99.90;;;;;;5051017;28;20044;-69
2022/12/31 06:34:52;;;;;;;2.85;2.38;;;11.00;99.90;;;;;;5050279;28;20073;-69
2022/12/31 06:37:18;;;;;;;3.03;2.13;;;11.10;99.90;;;;;;5050948;28;20493;-69
2022/12/31 06:39:43;;;;;;;3.67;2.80;;;11.00;99.90;;;;;;5051067;28;20037;-68
2022/12/31 06:42:09;;;;;;;2.72;2.40;;;11.00;99.90;;;;;;5050893;28;20111;-68
2022/12/31 06:44:34;;;;;;;2.35;2.05;;;11.00;99.90;;;;;;5050304;28;20458;-69
2022/12/31 06:47:00;;;;;;;3.15;2.30;;;11.00;99.90;;;;;;5050758;28;20037;-69
2022/12/31 06:49:26;;;;;;;4.43;2.42;;;11.00;99.90;;;;;;5050975;28;20037;-68
2022/12/31 06:51:51;;;;;;;3.92;2.38;;;11.00;99.90;;;;;;5044615;28;20044;-67
2022/12/31 06:54:17;;;;;;;3.75;2.60;;;11.00;99.90;;;;;;5053534;28;20512;-67
2022/12/31 06:56:43;;;;;;;2.53;2.33;;;11.00;99.90;;;;;;5061599;28;20078;-68
2022/12/31 06:59:29;;;;;;;3.08;2.17;;;11.00;99.90;;;;;;5069667;28;20392;-69
2022/12/31 07:02:19;;;;;;;2.60;2.25;;;11.00;99.90;;;;;;5055705;28;20075;-68
2022/12/31 07:05:06;;;;;;;2.45;2.25;;;11.00;99.90;;;;;;5070106;28;20647;-67
2022/12/31 07:07:52;;;;;;;2.72;2.38;;;11.00;99.90;;;;;;5074674;28;20080;-67
2022/12/31 07:10:39;;;;;;;2.97;2.10;;;11.00;99.90;;;;;;5066539;28;20037;-67
2022/12/31 07:13:25;;;;;;;2.42;2.17;;;11.00;99.90;;;;;;5045718;28;20082;-68
2022/12/31 07:16:00;;;;;;;2.20;2.00;;;11.00;99.90;;;;;;5055415;28;20041;-69
2022/12/31 07:18:44;;;;;;;2.58;2.20;;;11.00;99.90;;;;;;5062557;28;20162;-68
2022/12/31 07:21:12;;;;;;;2.63;2.08;;;11.10;99.90;;;;;;5067579;28;20041;-68
2022/12/31 07:23:39;;;;;;;2.53;2.33;;;11.00;99.90;;;;;;5068376;28;20428;-68
2022/12/31 07:26:46;;;;;;;2.30;1.77;;;11.00;99.90;;;;;;5067654;28;20425;-70
2022/12/31 07:29:30;;;;;;;2.42;1.80;;;11.00;99.90;;;;;;5063476;28;20048;-69
2022/12/31 07:32:15;;;;;;;5.18;2.05;;;11.10;99.90;;;;;;5074052;28;20044;-69
2022/12/31 07:35:09;;;;;;;2.15;1.77;;;11.10;99.90;;;;;;5073269;28;20551;-70
2022/12/31 07:37:52;;;;;;;1.67;1.58;;;11.10;99.90;;;;;;5074046;28;20041;-70
2022/12/31 07:40:31;;;;;;;3.75;2.40;;;11.10;99.90;;;;;;5074071;28;20032;-69
2022/12/31 07:43:08;;;;;;;2.10;1.85;;;11.10;99.90;;;;;;5072485;28;20116;-69
2022/12/31 07:45:46;;;;;;;2.53;2.33;;;11.20;99.90;;;;;;5073275;28;20082;-69
2022/12/31 07:48:38;;;;;;;2.83;2.38;;;11.10;99.90;;;;;;5073706;28;20545;-69
2022/12/31 07:51:04;;;;;;;3.00;2.50;;;11.20;99.90;;;;;;5072425;28;20187;-68
2022/12/31 07:53:30;;;;;;;2.85;2.35;;;11.20;99.90;;;;;;5073785;28;20124;-68
2022/12/31 07:56:03;;;;;;;2.92;2.30;;;11.20;99.90;;;;;;5056646;28;20028;-69
2022/12/31 07:58:51;;;;;;;;;;;11.20;99.90;;;;;;5062157;28;20076;-69
2022/12/31 08:01:31;;;;;;;2.97;2.35;;;11.20;99.90;;;;;;5061578;28;19916;-69
2022/12/31 08:04:28;;;;;;;4.82;2.47;;;11.20;99.90;;;;;;5052953;28;20406;-68
2022/12/31 08:06:58;;;;;;;3.40;2.65;;;11.20;99.90;;;;;;5052257;28;20102;-68
2022/12/31 08:09:48;;;;;;;5.43;2.50;;;11.30;99.90;;;;;;5061756;28;20032;-69
2022/12/31 08:12:14;;;;;;;3.17;2.80;;;11.30;99.90;;;;;;5068738;28;20094;-67
2022/12/31 08:14:45;;;;;;;7.97;5.07;;;11.30;99.90;;;;;;5071222;28;20044;-70
2022/12/31 08:17:13;;;;;;;6.30;4.53;;;11.30;99.90;;;;;;5072211;28;20037;-69
2022/12/31 08:19:39;;;;;;;5.22;3.67;;;11.40;99.90;;;;;;5069008;28;20131;-69
2022/12/31 08:22:13;;;;;;;4.85;2.92;;;11.40;99.90;;;;;;5062925;28;20124;-69
2022/12/31 08:25:07;;;;;;;2.63;2.38;;;11.50;99.90;;;;;;5068705;28;20090;-70
2022/12/31 08:27:47;;;;;;;2.83;2.42;;;11.50;99.90;;;;;;5073411;28;20045;-69
2022/12/31 08:30:16;;;;;;;2.75;2.30;;;11.50;99.90;;;;;;5073252;28;20044;-70
2022/12/31 08:32:54;;;;;;;2.30;2.10;;;11.60;99.90;;;;;;5071190;28;20052;-69
2022/12/31 08:35:31;;;;;;;5.75;3.08;;;11.60;99.90;;;;;;5050851;28;20535;-69
2022/12/31 08:38:23;;;;;;;3.70;2.85;;;11.60;99.90;;;;;;5052059;28;20039;-70
2022/12/31 08:41:16;;;;;;;4.70;3.15;;;11.60;99.90;;;;;;5049012;28;20045;-69
2022/12/31 08:44:03;;;;;;;3.50;2.38;;;11.70;99.90;;;;;;5048729;28;20512;-70
2022/12/31 08:46:44;;;;;;;2.97;2.65;;;11.70;99.90;;;;;;5050795;28;20091;-70
2022/12/31 08:49:10;;;;;;;4.80;2.83;;;11.70;99.90;;;;;;5051042;28;20048;-70
2022/12/31 08:51:36;;;;;;;2.60;2.40;;;11.80;99.90;;;;;;5051380;28;20063;-69
2022/12/31 08:54:02;;;;;;;3.22;2.92;;;11.80;99.90;;;;;;5051864;28;20501;-69
2022/12/31 08:56:39;;;;;;;2.88;2.63;;;11.90;99.90;;;;;;5052559;28;20431;-68
2022/12/31 08:59:20;;;;;;;3.35;2.90;;;11.90;99.90;;;;;;5052354;28;20037;-69
2022/12/31 09:02:06;;;;;;;3.90;2.95;;;11.90;99.90;;;;;;5052626;28;20069;-67
2022/12/31 09:04:48;;;;;;;2.92;2.58;;;12.00;99.90;;;;;;5051599;28;20052;-67
2022/12/31 09:07:21;;;;;;;3.47;3.03;;;12.00;99.90;;;;;;5052129;28;20087;-67
2022/12/31 09:10:13;;;;;;;5.03;2.95;;;12.00;99.90;;;;;;5054901;28;20378;-67
2022/12/31 09:12:59;;;;;;;3.22;2.30;;;12.00;99.90;;;;;;5059057;28;20037;-67
2022/12/31 09:15:48;;;;;;;2.42;2.08;;;12.10;99.90;;;;;;5059762;28;20047;-68
2022/12/31 09:18:14;;;;;;;2.00;1.80;;;12.20;99.90;;;;;;5061419;28;20032;-67
2022/12/31 09:20:40;;;;;;;1.73;1.58;;;12.20;99.90;;;;;;5061055;28;20126;-69
2022/12/31 09:23:06;;;;;;;1.88;1.65;;;12.20;99.90;;;;;;5061110;28;20044;-69
2022/12/31 09:25:32;;;;;;;4.72;1.70;;;12.30;99.90;;;;;;5060735;28;20045;-68
2022/12/31 09:28:16;;;;;;;2.38;1.38;;;12.30;99.90;;;;;;5060337;28;20033;-68
2022/12/31 09:30:57;;;;;;;1.30;1.20;;;12.30;99.90;;;;;;5051328;28;20502;-67
2022/12/31 09:33:41;;;;;;;1.77;1.40;;;12.30;99.90;;;;;;5051961;28;20428;-67
2022/12/31 09:36:14;;;;;;;2.70;1.75;;;12.30;99.90;;;;;;5051621;28;20040;-67
2022/12/31 09:39:05;;;;;;;1.98;1.42;;;12.40;99.90;;;;;;5051985;28;20037;-67
2022/12/31 09:41:52;;;;;;;1.40;1.30;;;12.40;99.90;;;;;;5041131;28;20066;-69
2022/12/31 09:44:59;;;;;;;1.92;1.00;;;12.40;99.90;;;;;;5060533;28;20100;-68
2022/12/31 09:48:02;;;;;;;0.85;0.85;;;12.50;99.90;;;;;;5052924;28;20053;-68
2022/12/31 09:50:30;;;;;;;1.95;1.08;;;12.50;99.90;;;;;;5063372;28;20036;-68
2022/12/31 09:53:25;;;;;;;1.98;0.73;;;12.50;99.90;;;;;;5071454;28;20658;-69
2022/12/31 09:56:03;;;;;;;0.63;0.63;;;12.50;99.90;;;;;;5070579;28;20552;-67
2022/12/31 09:59:01;;;;;;;2.85;1.20;;;12.50;99.90;;;;;;5071457;28;20036;-68
2022/12/31 10:02:01;;;;;;;3.28;2.40;;;12.50;99.90;;;;;;5070137;28;20051;-68
2022/12/31 10:04:53;;;;;;;3.63;1.85;;;12.50;99.90;;;;;;5070553;28;20063;-68
2022/12/31 10:07:31;;;;;;;1.10;1.00;;;12.60;99.90;;;;;;5068076;28;20060;-68
2022/12/31 10:10:17;;;;;;;3.20;1.27;;;12.60;99.90;;;;;;5071063;28;20044;-69
2022/12/31 10:13:03;;;;;;;3.67;2.20;;;12.60;99.90;;;;;;5071089;28;20771;-68
2022/12/31 10:15:38;;;;;;;4.72;3.03;;;12.60;99.90;;;;;;5056656;28;20060;-67
2022/12/31 10:18:16;;;;;;;2.95;1.15;;;12.70;99.90;;;;;;5060226;28;20055;-67
2022/12/31 10:21:05;;;;;;;2.33;1.65;;;12.80;99.90;;;;;;5058016;28;20049;-67
2022/12/31 10:23:54;;;;;;;1.85;1.73;;;12.80;99.90;;;;;;5060489;28;20765;-67
2022/12/31 10:26:39;;;;;;;2.33;2.05;;;12.80;99.90;;;;;;5071193;28;20083;-70
2022/12/31 10:29:17;;;;;;;3.00;1.25;;;12.80;99.90;;;;;;5071277;28;20047;-71
2022/12/31 10:31:57;;;;;;;6.53;4.00;;;12.90;99.90;;;;;;5070940;28;20043;-70
2022/12/31 10:34:23;;;;;;;8.32;3.60;;;12.90;99.90;;;;;;5070062;28;20132;-72
2022/12/31 10:36:53;;;;;;;6.07;3.55;;;12.80;99.90;;;;;;5052761;28;20123;-69
2022/12/31 10:39:43;;;;;;;4.22;3.80;;;12.80;99.90;;;;;;5069522;28;20040;-70
2022/12/31 10:42:45;;;;;;;4.32;2.47;;;12.90;99.90;;;;;;5070455;28;20059;-70
2022/12/31 10:45:25;;;;;;;2.75;2.30;;;12.90;99.90;;;;;;5070267;28;20028;-71
2022/12/31 10:48:24;;;;;;;3.72;2.20;;;12.90;99.90;;;;;;5070877;28;20119;-71
2022/12/31 10:51:19;;;;;;;2.85;1.85;;;12.90;99.90;;;;;;5069399;28;20171;-71
2022/12/31 10:54:28;;;;;;;2.13;1.92;;;12.90;99.90;;;;;;5070197;28;20052;-72
2022/12/31 10:57:28;;;;;;;5.40;2.20;;;13.00;99.90;;;;;;5069615;28;20041;-71
2022/12/31 11:00:05;;;;;;;3.83;1.40;;;13.00;99.90;;;;;;5060670;28;20040;-68
2022/12/31 11:02:57;;;;;;;2.05;1.13;;;13.00;99.90;;;;;;5049493;28;20090;-68
2022/12/31 11:05:44;;;;;;;1.63;1.40;;;13.00;99.90;;;;;;5048979;28;20041;-68
2022/12/31 11:08:09;;;;;;;1.75;1.38;;;13.00;99.90;;;;;;5045936;28;20037;-69
2022/12/31 11:10:59;;;;;;;2.90;1.70;;;13.00;99.90;;;;;;5038701;28;20474;-68
2022/12/31 11:13:53;;;;;;;2.85;1.35;;;13.00;99.90;;;;;;5028714;28;20044;-68
2022/12/31 11:16:57;;;;;;;2.53;1.20;;;13.00;99.90;;;;;;5027929;28;20044;-70
2022/12/31 11:19:46;;;;;;;1.45;1.27;;;13.00;99.90;;;;;;5038476;28;20042;-70
2022/12/31 11:22:18;;;;;;;1.95;1.30;;;13.00;99.90;;;;;;5029113;28;20561;-68
2022/12/31 11:25:08;;;;;;;3.55;1.40;;;13.10;99.90;;;;;;5032404;28;20049;-68
2022/12/31 11:28:11;;;;;;;2.85;1.73;;;13.10;99.90;;;;;;5036382;28;20421;-70
2022/12/31 11:30:55;;;;;;;5.65;2.60;;;13.10;99.90;;;;;;5025006;28;20068;-69
2022/12/31 11:33:53;;;;;;;2.03;1.55;;;13.10;99.90;;;;;;5037449;28;20139;-69
2022/12/31 11:36:48;;;;;;;3.75;2.03;;;13.10;99.90;;;;;;5045560;28;20037;-68
2022/12/31 11:39:38;;;;;;;3.28;2.22;;;13.10;99.90;;;;;;5043373;28;20044;-67
2022/12/31 11:42:29;;;;;;;2.63;2.15;;;13.10;99.90;;;;;;5037627;28;20049;-68
2022/12/31 11:45:14;;;;;;;3.17;2.00;;;13.10;99.90;;;;;;5036962;28;20041;-70
2022/12/31 11:47:50;;;;;;;4.15;2.97;;;13.30;99.90;;;;;;5037130;28;20048;-68
2022/12/31 11:50:37;;;;;;;11.50;4.28;;;13.40;99.90;;;;;;5044798;28;20080;-69
2022/12/31 11:53:14;;;;;;;8.95;5.05;;;13.40;99.90;;;;;;5050797;28;20041;-69
2022/12/31 11:55:39;;;;;;;4.38;3.25;;;13.40;99.90;;;;;;5051986;28;20037;-68
2022/12/31 11:58:15;;;;;;;8.18;4.40;;;13.40;99.90;;;;;;5060278;28;20032;-69
2022/12/31 12:01:13;;;;;;;10.30;5.90;;;13.50;99.90;;;;;;5061479;28;20051;-69
2022/12/31 12:03:42;;;;;;;10.13;6.55;;;13.50;99.90;;;;;;5056993;28;20053;-69
2022/12/31 12:06:12;;;;;;;8.73;5.35;;;13.50;99.90;;;;;;5064688;28;20040;-69
2022/12/31 12:08:39;;;;;;;7.82;4.97;;;13.60;99.90;;;;;;5073314;28;20033;-68
2022/12/31 12:11:34;;;;;;;2.30;2.10;;;13.60;99.90;;;;;;5073455;28;20044;-69
2022/12/31 12:13:59;;;;;;;5.70;3.85;;;13.70;99.90;;;;;;5069748;28;20092;-68
2022/12/31 12:16:27;;;;;;;7.53;5.57;;;13.60;99.90;;;;;;5071888;28;20109;-70
2022/12/31 12:19:15;;;;;;;7.47;4.50;;;13.70;99.90;;;;;;5072241;28;20051;-68
2022/12/31 12:21:46;;;;;;;12.55;8.43;;;13.70;99.90;;;;;;5073065;28;20759;-69
2022/12/31 12:24:28;;;;;;;8.18;5.05;;;13.70;99.90;;;;;;5072296;28;20051;-70
2022/12/31 12:26:56;;;;;;;;;;;13.70;99.90;;;;;;5064382;28;20115;-71
2022/12/31 12:29:33;;;;;;;6.72;3.10;;;13.60;99.90;;;;;;5062585;28;19946;-71
2022/12/31 12:32:03;;;;;;;5.47;2.15;;;13.70;99.90;;;;;;5052927;28;20074;-70
2022/12/31 12:34:34;;;;;;;5.35;1.90;;;13.70;99.90;;;;;;5053291;28;20052;-68
2022/12/31 12:37:00;;;;;;;2.67;1.65;;;13.70;99.90;;;;;;5043722;28;20060;-69
2022/12/31 12:39:31;;;;;;;3.67;1.60;;;13.70;99.90;;;;;;5057384;28;20489;-72
2022/12/31 12:42:00;;;;;;;5.00;2.10;;;13.70;99.90;;;;;;5052077;28;20116;-70
2022/12/31 12:44:26;;;;;;;3.88;1.52;;;13.80;99.90;;;;;;5047778;28;20135;-72
2022/12/31 12:46:52;;;;;;;7.22;2.40;;;13.70;99.90;;;;;;5052372;28;20537;-71
2022/12/31 12:49:28;;;;;;;3.85;2.08;;;13.70;99.90;;;;;;5052381;28;20057;-71
2022/12/31 12:52:03;;;;;;;3.50;1.77;;;13.60;99.90;;;;;;5050519;28;20086;-70
2022/12/31 12:54:31;;;;;;;6.57;1.60;;;13.60;99.90;;;;;;5050463;28;20041;-69
2022/12/31 12:57:21;;;;;;;3.17;1.52;;;13.60;99.90;;;;;;5052646;28;20095;-69
2022/12/31 13:00:14;;;;;;;1.75;1.50;;;13.60;99.90;;;;;;5052556;28;20040;-70
2022/12/31 13:02:58;;;;;;;2.25;1.83;;;13.60;99.90;;;;;;5052156;28;20041;-70
2022/12/31 13:05:44;;;;;;;4.70;2.33;;;13.60;99.90;;;;;;5050251;28;20041;-70
2022/12/31 13:08:27;;;;;;;3.03;1.52;;;13.60;99.90;;;;;;5052678;28;20094;-69
2022/12/31 13:11:33;;;;;;;3.30;1.40;;;13.60;99.90;;;;;;5051283;28;20036;-70
2022/12/31 13:14:01;;;;;;;4.05;1.80;;;13.60;99.90;;;;;;5051536;28;20078;-71
2022/12/31 13:16:58;;;;;;;2.17;1.98;;;13.50;99.90;;;;;;5051277;28;20044;-71
2022/12/31 13:19:41;;;;;;;4.75;1.65;;;13.50;99.90;;;;;;5052462;28;20401;-70
2022/12/31 13:22:15;;;;;;;2.65;1.80;;;13.50;99.90;;;;;;5052299;28;20041;-70
2022/12/31 13:24:53;;;;;;;2.00;1.60;;;13.50;99.90;;;;;;5051736;28;20128;-73
2022/12/31 13:27:41;;;;;;;3.20;1.80;;;13.50;99.90;;;;;;5052115;28;20049;-70
2022/12/31 13:30:22;;;;;;;3.00;2.30;;;13.50;99.90;;;;;;5051710;28;20040;-71
2022/12/31 13:33:00;;;;;;;6.28;2.33;;;13.40;99.90;;;;;;5052002;28;20505;-69
2022/12/31 13:35:32;;;;;;;5.15;2.30;;;13.50;99.90;;;;;;5050127;28;20049;-69
2022/12/31 13:38:09;;;;;;;4.72;2.33;;;13.40;99.90;;;;;;5051846;28;20036;-69
2022/12/31 13:40:58;;;;;;;2.92;1.70;;;13.40;99.90;;;;;;5050188;28;20136;-71